createdAt,value
2017-11-11T00:00:50.372Z,0
2017-11-11T00:02:03.158Z,0
2017-11-11T00:03:16.543Z,0
2017-11-11T00:04:29.860Z,0
2017-11-11T00:05:42.699Z,0
2017-11-11T00:06:56.232Z,0
2017-11-11T00:08:09.668Z,0
2017-11-11T00:09:23.045Z,0
2017-11-11T00:10:35.333Z,0
2017-11-11T00:11:48.663Z,0
2017-11-11T00:13:01.472Z,0
2017-11-11T00:14:14.282Z,0
2017-11-11T00:15:27.612Z,0
2017-11-11T00:16:41.703Z,0
2017-11-11T00:17:54.997Z,0
2017-11-11T00:19:08.385Z,0
2017-11-11T00:20:21.146Z,0
2017-11-11T00:21:34.506Z,0
2017-11-11T00:22:47.248Z,0
2017-11-11T00:24:00.744Z,0
2017-11-11T00:25:14.079Z,0
2017-11-11T00:26:26.335Z,0
2017-11-11T00:27:39.109Z,0
2017-11-11T00:28:52.424Z,0
2017-11-11T00:30:05.785Z,0
2017-11-11T00:31:19.108Z,0
2017-11-11T00:32:31.358Z,0
2017-11-11T00:33:44.662Z,0
2017-11-11T00:34:56.384Z,0
2017-11-11T00:36:09.743Z,0
2017-11-11T00:37:23.091Z,0
2017-11-11T00:38:35.911Z,0
2017-11-11T00:39:49.219Z,0
2017-11-11T00:41:02.077Z,0
2017-11-11T00:42:14.191Z,0
2017-11-11T00:43:27.015Z,0
2017-11-11T00:44:39.763Z,0
2017-11-11T00:45:53.088Z,0
2017-11-11T00:47:05.976Z,0
2017-11-11T00:48:19.325Z,0
2017-11-11T00:49:31.581Z,0
2017-11-11T00:50:44.465Z,0
2017-11-11T00:51:57.800Z,0
2017-11-11T00:53:11.141Z,0
2017-11-11T00:54:24.676Z,0
2017-11-11T00:55:38.010Z,0
2017-11-11T00:56:51.313Z,0
2017-11-11T00:58:04.145Z,0
2017-11-11T00:59:17.463Z,0
2017-11-11T01:00:30.784Z,0
2017-11-11T01:01:44.165Z,0
2017-11-11T01:02:57.467Z,0
2017-11-11T01:04:11.393Z,0
2017-11-11T01:05:24.724Z,0
2017-11-11T01:06:37.541Z,0
2017-11-11T01:07:50.335Z,0
2017-11-11T01:09:03.677Z,0
2017-11-11T01:10:17.021Z,0
2017-11-11T01:11:30.356Z,0
2017-11-11T01:12:43.771Z,0
2017-11-11T01:13:57.107Z,0
2017-11-11T01:15:10.674Z,0
2017-11-11T01:16:23.975Z,0
2017-11-11T01:17:37.325Z,0
2017-11-11T01:18:50.200Z,0
2017-11-11T01:20:03.539Z,0
2017-11-11T01:21:16.568Z,0
2017-11-11T01:22:29.985Z,0
2017-11-11T01:23:43.388Z,0
2017-11-11T01:24:56.781Z,0
2017-11-11T01:26:09.593Z,0
2017-11-11T01:27:22.925Z,0
2017-11-11T01:28:35.744Z,0
2017-11-11T01:29:49.051Z,0
2017-11-11T01:31:02.400Z,0
2017-11-11T01:32:14.657Z,0
2017-11-11T01:33:28.009Z,0
2017-11-11T01:34:40.798Z,0
2017-11-11T01:35:54.112Z,0
2017-11-11T01:37:07.449Z,0
2017-11-11T01:38:20.953Z,0
2017-11-11T01:39:34.273Z,0
2017-11-11T01:40:47.048Z,0
2017-11-11T01:42:00.364Z,0
2017-11-11T01:43:13.165Z,0
2017-11-11T01:44:25.977Z,0
2017-11-11T01:45:38.743Z,0
2017-11-11T01:46:52.119Z,0
2017-11-11T01:48:05.411Z,0
2017-11-11T01:49:18.220Z,0
2017-11-11T01:50:31.562Z,0
2017-11-11T01:51:44.347Z,0
2017-11-11T01:52:57.122Z,0
2017-11-11T01:54:10.454Z,0
2017-11-11T01:55:23.751Z,0
2017-11-11T01:56:36.557Z,0
2017-11-11T01:57:49.914Z,0
2017-11-11T01:59:03.258Z,0
2017-11-11T02:00:16.585Z,0
2017-11-11T02:01:29.899Z,0
2017-11-11T02:02:43.211Z,0
2017-11-11T02:03:56.627Z,0
2017-11-11T02:05:09.957Z,0
2017-11-11T02:06:23.371Z,0
2017-11-11T02:07:36.713Z,0
2017-11-11T02:08:50.066Z,0
2017-11-11T02:10:03.395Z,0
2017-11-11T02:11:16.189Z,0
2017-11-11T02:12:28.462Z,0
2017-11-11T02:13:41.816Z,0
2017-11-11T02:14:54.644Z,0
2017-11-11T02:16:08.008Z,0
2017-11-11T02:17:20.790Z,0
2017-11-11T02:18:34.139Z,0
2017-11-11T02:19:47.705Z,0
2017-11-11T02:21:01.065Z,0
2017-11-11T02:22:13.855Z,0
2017-11-11T02:23:27.197Z,0
2017-11-11T02:24:40.525Z,0
2017-11-11T02:25:53.878Z,0
2017-11-11T02:27:06.659Z,0
2017-11-11T02:28:20.016Z,0
2017-11-11T02:29:33.343Z,0
2017-11-11T02:30:46.664Z,0
2017-11-11T02:32:00.048Z,0
2017-11-11T02:33:13.376Z,0
2017-11-11T02:34:26.169Z,0
2017-11-11T02:35:39.485Z,0
2017-11-11T02:36:52.857Z,0
2017-11-11T02:38:06.201Z,0
2017-11-11T02:39:19.008Z,0
2017-11-11T02:40:32.353Z,0
2017-11-11T02:41:45.720Z,0
2017-11-11T02:42:58.031Z,0
2017-11-11T02:44:10.793Z,0
2017-11-11T02:45:23.612Z,0
2017-11-11T02:46:36.411Z,0
2017-11-11T02:47:49.246Z,0
2017-11-11T02:49:02.040Z,0
2017-11-11T02:50:15.372Z,0
2017-11-11T02:51:28.801Z,0
2017-11-11T02:52:41.630Z,0
2017-11-11T02:53:54.981Z,0
2017-11-11T02:55:07.765Z,0
2017-11-11T02:56:21.100Z,0
2017-11-11T02:57:33.862Z,0
2017-11-11T02:58:46.697Z,0
2017-11-11T03:00:00.087Z,0
2017-11-11T03:01:12.392Z,0
2017-11-11T03:02:25.247Z,0
2017-11-11T03:03:38.590Z,0
2017-11-11T03:04:51.392Z,0
2017-11-11T03:06:04.721Z,0
2017-11-11T03:07:18.345Z,0
2017-11-11T03:08:31.762Z,0
2017-11-11T03:09:44.528Z,0
2017-11-11T03:10:57.884Z,0
2017-11-11T03:12:11.205Z,0
2017-11-11T03:13:24.557Z,0
2017-11-11T03:14:37.902Z,0
2017-11-11T03:15:50.692Z,0
2017-11-11T03:17:04.231Z,0
2017-11-11T03:18:16.529Z,0
2017-11-11T03:19:29.838Z,0
2017-11-11T03:20:42.080Z,0
2017-11-11T03:21:55.515Z,0
2017-11-11T03:23:08.846Z,0
2017-11-11T03:24:21.659Z,0
2017-11-11T03:25:34.051Z,0
2017-11-11T03:26:46.848Z,0
2017-11-11T03:28:00.203Z,0
2017-11-11T03:29:13.526Z,0
2017-11-11T03:30:26.322Z,0
2017-11-11T03:31:39.079Z,0
2017-11-11T03:32:52.425Z,0
2017-11-11T03:34:05.774Z,0
2017-11-11T03:35:19.105Z,0
2017-11-11T03:36:32.500Z,0
2017-11-11T03:37:45.823Z,0
2017-11-11T03:38:59.369Z,0
2017-11-11T03:40:12.676Z,0
2017-11-11T03:41:26.039Z,0
2017-11-11T03:42:39.420Z,0
2017-11-11T03:43:52.727Z,0
2017-11-11T03:45:05.508Z,0
2017-11-11T03:46:18.833Z,0
2017-11-11T03:47:32.181Z,0
2017-11-11T03:48:44.998Z,0
2017-11-11T03:49:58.356Z,0
2017-11-11T03:51:11.173Z,0
2017-11-11T03:52:23.983Z,0
2017-11-11T03:53:36.787Z,0
2017-11-11T03:54:50.093Z,0
2017-11-11T03:56:03.115Z,0
2017-11-11T03:57:16.470Z,0
2017-11-11T03:58:29.249Z,0
2017-11-11T03:59:42.564Z,0
2017-11-11T04:00:55.899Z,0
2017-11-11T04:02:08.372Z,0
2017-11-11T04:03:21.723Z,0
2017-11-11T04:04:35.060Z,0
2017-11-11T04:05:48.405Z,0
2017-11-11T04:07:01.242Z,0
2017-11-11T04:08:14.562Z,0
2017-11-11T04:09:27.945Z,0
2017-11-11T04:10:41.305Z,0
2017-11-11T04:11:54.606Z,0
2017-11-11T04:13:07.976Z,0
2017-11-11T04:14:20.776Z,0
2017-11-11T04:15:34.096Z,0
2017-11-11T04:16:47.076Z,0
2017-11-11T04:18:00.426Z,0
2017-11-11T04:19:13.743Z,0
2017-11-11T04:20:27.106Z,0
2017-11-11T04:21:40.430Z,0
2017-11-11T04:22:53.199Z,0
2017-11-11T04:24:05.994Z,0
2017-11-11T04:25:19.325Z,0
2017-11-11T04:26:32.139Z,0
2017-11-11T04:27:45.505Z,0
2017-11-11T04:28:58.842Z,0
2017-11-11T04:30:11.641Z,0
2017-11-11T04:31:24.971Z,0
2017-11-11T04:32:37.725Z,0
2017-11-11T04:33:51.046Z,0
2017-11-11T04:35:04.361Z,0
2017-11-11T04:36:17.684Z,0
2017-11-11T04:37:31.035Z,0
2017-11-11T04:38:43.817Z,0
2017-11-11T04:39:57.163Z,0
2017-11-11T04:41:10.539Z,0
2017-11-11T04:42:23.841Z,0
2017-11-11T04:43:36.621Z,0
2017-11-11T04:44:49.397Z,0
2017-11-11T04:46:02.697Z,0
2017-11-11T04:47:16.032Z,0
2017-11-11T04:48:28.810Z,0
2017-11-11T04:49:42.086Z,0
2017-11-11T04:50:55.394Z,0
2017-11-11T04:52:08.714Z,0
2017-11-11T04:53:22.066Z,0
2017-11-11T04:54:35.382Z,0
2017-11-11T04:55:48.702Z,0
2017-11-11T04:57:02.036Z,0
2017-11-11T04:58:15.415Z,0
2017-11-11T04:59:28.763Z,0
2017-11-11T05:00:41.541Z,0
2017-11-11T05:01:54.831Z,0
2017-11-11T05:03:08.238Z,0
2017-11-11T05:04:20.542Z,0
2017-11-11T05:05:32.835Z,0
2017-11-11T05:06:46.150Z,0
2017-11-11T05:07:59.468Z,0
2017-11-11T05:09:12.826Z,0
2017-11-11T05:10:26.232Z,0
2017-11-11T05:11:39.524Z,0
2017-11-11T05:12:52.826Z,0
2017-11-11T05:14:06.146Z,0
2017-11-11T05:15:19.466Z,0
2017-11-11T05:16:32.761Z,0
2017-11-11T05:17:46.082Z,0
2017-11-11T05:18:59.397Z,0
2017-11-11T05:20:12.771Z,0
2017-11-11T05:21:25.586Z,0
2017-11-11T05:22:39.112Z,0
2017-11-11T05:23:52.456Z,0
2017-11-11T05:25:05.769Z,0
2017-11-11T05:26:19.084Z,0
2017-11-11T05:27:31.881Z,0
2017-11-11T05:28:45.207Z,0
2017-11-11T05:29:57.959Z,0
2017-11-11T05:31:12.004Z,0
2017-11-11T05:32:26.000Z,0
2017-11-11T05:33:39.458Z,0
2017-11-11T05:34:53.495Z,0
2017-11-11T05:36:06.929Z,0
2017-11-11T05:37:20.963Z,0
2017-11-11T05:38:35.020Z,0
2017-11-11T05:39:48.430Z,0
2017-11-11T05:41:02.469Z,0
2017-11-11T05:42:15.908Z,0
2017-11-11T05:43:29.960Z,0
2017-11-11T05:44:44.062Z,0
2017-11-11T05:45:57.511Z,0
2017-11-11T05:47:11.504Z,0
2017-11-11T05:48:25.550Z,0
2017-11-11T05:49:39.565Z,0
2017-11-11T05:50:53.041Z,0
2017-11-11T05:52:07.084Z,0
2017-11-11T05:53:21.131Z,0
2017-11-11T05:54:34.578Z,0
2017-11-11T05:55:48.584Z,0
2017-11-11T05:57:02.010Z,0
2017-11-11T05:58:16.037Z,0
2017-11-11T05:59:37.985Z,0
2017-11-11T06:00:51.977Z,0
2017-11-11T06:02:04.879Z,0
2017-11-11T06:03:18.940Z,0
2017-11-11T06:04:32.928Z,0
2017-11-11T06:05:46.393Z,0
2017-11-11T06:06:59.852Z,0
2017-11-11T06:08:13.345Z,0
2017-11-11T06:09:27.384Z,0
2017-11-11T06:10:41.402Z,0
2017-11-11T06:11:55.398Z,0
2017-11-11T06:13:08.289Z,0
2017-11-11T06:14:22.386Z,0
2017-11-11T06:15:36.435Z,0
2017-11-11T06:16:50.508Z,0
2017-11-11T06:18:04.519Z,0
2017-11-11T06:19:18.000Z,0
2017-11-11T06:20:32.066Z,0
2017-11-11T06:21:45.531Z,0
2017-11-11T06:23:00.005Z,0
2017-11-11T06:24:14.225Z,0
2017-11-11T06:25:28.300Z,0
2017-11-11T06:26:42.286Z,0
2017-11-11T06:27:56.326Z,0
2017-11-11T06:29:09.781Z,0
2017-11-11T06:30:23.238Z,0
2017-11-11T06:31:36.126Z,0
2017-11-11T06:32:50.214Z,0
2017-11-11T06:34:04.225Z,0
2017-11-11T06:35:18.249Z,0
2017-11-11T06:36:31.883Z,0
2017-11-11T06:37:45.949Z,0
2017-11-11T06:38:59.952Z,0
2017-11-11T06:40:14.033Z,0
2017-11-11T06:41:28.079Z,0
2017-11-11T06:42:41.527Z,0
2017-11-11T06:43:55.555Z,0
2017-11-11T06:45:09.594Z,0
2017-11-11T06:46:23.061Z,0
2017-11-11T06:47:37.084Z,0
2017-11-11T06:48:51.138Z,0
2017-11-11T06:50:04.628Z,0
2017-11-11T06:51:18.074Z,0
2017-11-11T06:52:30.923Z,0
2017-11-11T06:53:43.797Z,0
2017-11-11T06:54:57.238Z,0
2017-11-11T06:56:10.691Z,0
2017-11-11T06:57:24.757Z,0
2017-11-11T06:58:37.649Z,0
2017-11-11T06:59:51.635Z,0
2017-11-11T07:01:05.717Z,0
2017-11-11T07:02:19.787Z,0
2017-11-11T07:03:33.840Z,0
2017-11-11T07:04:47.297Z,0
2017-11-11T07:06:00.739Z,0
2017-11-11T07:07:14.820Z,0
2017-11-11T07:08:28.881Z,0
2017-11-11T07:09:42.956Z,0
2017-11-11T07:10:56.989Z,0
2017-11-11T07:12:11.010Z,0
2017-11-11T07:13:25.081Z,0
2017-11-11T07:14:39.091Z,0
2017-11-11T07:15:52.554Z,0
2017-11-11T07:17:06.571Z,0
2017-11-11T07:18:20.009Z,0
2017-11-11T07:19:34.017Z,0
2017-11-11T07:20:48.068Z,0
2017-11-11T07:22:02.112Z,0
2017-11-11T07:23:15.546Z,0
2017-11-11T07:24:29.605Z,0
2017-11-11T07:25:43.650Z,0
2017-11-11T07:26:56.531Z,0
2017-11-11T07:28:41.562Z,0
2017-11-11T07:29:55.574Z,0
2017-11-11T07:31:09.612Z,0
2017-11-11T07:32:23.654Z,0
2017-11-11T07:33:36.487Z,0
2017-11-11T07:34:49.968Z,0
2017-11-11T07:36:04.056Z,0
2017-11-11T07:37:16.895Z,0
2017-11-11T07:38:30.941Z,0
2017-11-11T07:39:44.395Z,0
2017-11-11T07:40:58.471Z,0
2017-11-11T07:42:12.512Z,0
2017-11-11T07:43:26.550Z,0
2017-11-11T07:44:41.124Z,0
2017-11-11T07:46:20.862Z,0
2017-11-11T07:47:33.677Z,0
2017-11-11T07:48:47.160Z,0
2017-11-11T07:50:01.265Z,0
2017-11-11T07:51:15.272Z,0
2017-11-11T07:52:29.313Z,0
2017-11-11T07:53:42.971Z,0
2017-11-11T07:54:56.451Z,0
2017-11-11T07:56:09.904Z,4
2017-11-11T07:57:23.924Z,4
2017-11-11T07:58:37.961Z,4
2017-11-11T08:00:23.001Z,4
2017-11-11T08:01:37.022Z,8
2017-11-11T08:02:51.065Z,12
2017-11-11T08:04:03.924Z,16
2017-11-11T08:05:17.958Z,24
2017-11-11T08:06:31.387Z,28
2017-11-11T08:07:45.456Z,36
2017-11-11T08:08:59.480Z,52
2017-11-11T08:10:13.508Z,68
2017-11-11T08:11:27.541Z,88
2017-11-11T08:12:41.556Z,108
2017-11-11T08:13:55.062Z,128
2017-11-11T08:15:08.514Z,136
2017-11-11T08:16:21.433Z,140
2017-11-11T08:17:34.898Z,148
2017-11-11T08:18:48.336Z,168
2017-11-11T08:20:02.384Z,196
2017-11-11T08:21:16.476Z,232
2017-11-11T08:22:29.934Z,284
2017-11-11T08:24:14.371Z,380
2017-11-11T08:25:28.398Z,416
2017-11-11T08:26:42.449Z,432
2017-11-11T08:27:55.275Z,468
2017-11-11T08:29:09.289Z,560
2017-11-11T08:30:23.306Z,632
2017-11-11T08:31:35.603Z,644
2017-11-11T08:32:49.657Z,656
2017-11-11T08:34:03.894Z,876
2017-11-11T08:35:17.347Z,1200
2017-11-11T08:36:30.781Z,1516
2017-11-11T08:37:44.847Z,1796
2017-11-11T08:38:58.327Z,1988
2017-11-11T08:40:11.809Z,2096
2017-11-11T08:41:25.848Z,2144
2017-11-11T08:42:39.306Z,2088
2017-11-11T08:43:53.356Z,1980
2017-11-11T08:45:06.248Z,2048
2017-11-11T08:46:20.297Z,2248
2017-11-11T08:47:33.740Z,2616
2017-11-11T08:48:47.784Z,2896
2017-11-11T08:50:01.841Z,2736
2017-11-11T08:51:15.919Z,2372
2017-11-11T08:52:29.959Z,2332
2017-11-11T08:53:43.987Z,2356
2017-11-11T08:54:57.472Z,2448
2017-11-11T08:56:10.909Z,2548
2017-11-11T08:57:24.386Z,2572
2017-11-11T08:58:38.419Z,2828
2017-11-11T08:59:51.896Z,2696
2017-11-11T09:01:05.961Z,2392
2017-11-11T09:02:20.007Z,2500
2017-11-11T09:03:33.465Z,3120
2017-11-11T09:04:47.548Z,3600
2017-11-11T09:06:01.555Z,4132
2017-11-11T09:07:14.470Z,4696
2017-11-11T09:08:28.546Z,5164
2017-11-11T09:09:41.994Z,5472
2017-11-11T09:10:54.898Z,5960
2017-11-11T09:12:08.929Z,6788
2017-11-11T09:13:22.370Z,7852
2017-11-11T09:14:36.678Z,8984
2017-11-11T09:15:50.756Z,10504
2017-11-11T09:17:04.232Z,11396
2017-11-11T09:18:18.259Z,11744
2017-11-11T09:19:31.687Z,12096
2017-11-11T09:20:45.692Z,11200
2017-11-11T09:21:59.730Z,10140
2017-11-11T09:23:13.775Z,10116
2017-11-11T09:24:27.841Z,10468
2017-11-11T09:25:41.870Z,11356
2017-11-11T09:26:55.926Z,12108
2017-11-11T09:28:09.968Z,11988
2017-11-11T09:29:23.393Z,10844
2017-11-11T09:30:37.433Z,9964
2017-11-11T09:31:51.473Z,9320
2017-11-11T09:33:05.716Z,7464
2017-11-11T09:34:19.749Z,7164
2017-11-11T09:35:33.775Z,8012
2017-11-11T09:36:47.809Z,9620
2017-11-11T09:38:01.779Z,11484
2017-11-11T09:39:15.793Z,13108
2017-11-11T09:40:29.860Z,13728
2017-11-11T09:41:43.833Z,11780
2017-11-11T09:42:57.286Z,10576
2017-11-11T09:44:11.377Z,11784
2017-11-11T09:45:25.395Z,13764
2017-11-11T09:46:39.554Z,16212
2017-11-11T09:47:53.572Z,19072
2017-11-11T09:49:07.608Z,21632
2017-11-11T09:50:21.887Z,22752
2017-11-11T09:51:34.771Z,24064
2017-11-11T09:52:48.744Z,25344
2017-11-11T09:54:02.796Z,47616
2017-11-11T09:55:16.290Z,22112
2017-11-11T09:56:29.148Z,16836
2017-11-11T09:57:42.631Z,16052
2017-11-11T09:58:56.670Z,16148
2017-11-11T10:00:10.701Z,15664
2017-11-11T10:01:24.915Z,13988
2017-11-11T10:02:38.369Z,13188
2017-11-11T10:03:52.827Z,13252
2017-11-11T10:05:06.907Z,13396
2017-11-11T10:06:20.975Z,13152
2017-11-11T10:07:34.422Z,13164
2017-11-11T10:08:48.451Z,13036
2017-11-11T10:10:02.492Z,13636
2017-11-11T10:11:16.532Z,14592
2017-11-11T10:12:30.546Z,15556
2017-11-11T10:13:44.586Z,14800
2017-11-11T10:14:58.632Z,13508
2017-11-11T10:16:12.116Z,11864
2017-11-11T10:17:26.184Z,11188
2017-11-11T10:18:39.641Z,10344
2017-11-11T10:19:53.665Z,9840
2017-11-11T10:21:07.697Z,9604
2017-11-11T10:22:21.697Z,9980
2017-11-11T10:23:35.159Z,9496
2017-11-11T10:24:48.049Z,9552
2017-11-11T10:26:02.110Z,9464
2017-11-11T10:27:14.962Z,9208
2017-11-11T10:28:28.982Z,9972
2017-11-11T10:29:42.393Z,10760
2017-11-11T10:30:55.825Z,10120
2017-11-11T10:32:09.874Z,11828
2017-11-11T10:33:23.905Z,14344
2017-11-11T10:34:37.966Z,17696
2017-11-11T10:35:52.039Z,18240
2017-11-11T10:37:06.086Z,17856
2017-11-11T10:38:20.082Z,15036
2017-11-11T10:39:33.500Z,13592
2017-11-11T10:40:46.967Z,12384
2017-11-11T10:42:01.006Z,10860
2017-11-11T10:43:15.028Z,10280
2017-11-11T10:44:28.620Z,10344
2017-11-11T10:45:42.178Z,11484
2017-11-11T10:46:56.197Z,12176
2017-11-11T10:48:09.691Z,12360
2017-11-11T10:49:23.121Z,12360
2017-11-11T10:50:38.942Z,13176
2017-11-11T10:51:54.239Z,12872
2017-11-11T10:53:08.277Z,13748
2017-11-11T10:54:22.301Z,15764
2017-11-11T10:55:35.714Z,17088
2017-11-11T10:56:49.165Z,17792
2017-11-11T10:58:02.641Z,17376
2017-11-11T10:59:16.079Z,15780
2017-11-11T11:00:29.491Z,13104
2017-11-11T11:01:43.509Z,10796
2017-11-11T11:02:56.962Z,8880
2017-11-11T11:04:10.996Z,7020
2017-11-11T11:05:24.433Z,5932
2017-11-11T11:06:37.908Z,5888
2017-11-11T11:09:36.994Z,6132
2017-11-11T11:10:50.997Z,6384
2017-11-11T11:12:03.839Z,6828
2017-11-11T11:13:16.712Z,7216
2017-11-11T11:14:29.540Z,7272
2017-11-11T11:15:43.608Z,7524
2017-11-11T11:16:57.079Z,7948
2017-11-11T11:18:10.485Z,8420
2017-11-11T11:19:24.534Z,8740
2017-11-11T11:20:37.396Z,9180
2017-11-11T11:21:50.316Z,10360
2017-11-11T11:23:04.347Z,11160
2017-11-11T11:24:18.378Z,11932
2017-11-11T11:25:31.861Z,15488
2017-11-11T11:26:45.889Z,19520
2017-11-11T11:27:59.944Z,19360
2017-11-11T11:29:14.010Z,20288
2017-11-11T11:30:26.874Z,23264
2017-11-11T11:31:39.184Z,27360
2017-11-11T11:32:53.242Z,31680
2017-11-11T11:34:07.289Z,30560
2017-11-11T11:35:21.336Z,29536
2017-11-11T11:36:34.816Z,24928
2017-11-11T11:37:48.865Z,21760
2017-11-11T11:39:02.305Z,21376
2017-11-11T11:40:16.322Z,24544
2017-11-11T11:41:29.784Z,29824
2017-11-11T11:42:43.843Z,36512
2017-11-11T11:43:57.893Z,38240
2017-11-11T11:45:11.892Z,37632
2017-11-11T11:46:25.334Z,36672
2017-11-11T11:47:39.382Z,35840
2017-11-11T11:48:53.401Z,35584
2017-11-11T11:50:06.897Z,35840
2017-11-11T11:51:19.800Z,33600
2017-11-11T11:52:33.811Z,33344
2017-11-11T11:53:47.820Z,33888
2017-11-11T11:55:01.889Z,33920
2017-11-11T11:56:14.764Z,33664
2017-11-11T11:57:27.647Z,31904
2017-11-11T11:58:41.714Z,31360
2017-11-11T11:59:55.154Z,32960
2017-11-11T12:01:09.180Z,35136
2017-11-11T12:02:23.227Z,35680
2017-11-11T12:03:36.652Z,33440
2017-11-11T12:04:50.096Z,33824
2017-11-11T12:06:04.171Z,35936
2017-11-11T12:07:18.252Z,38560
2017-11-11T12:08:32.303Z,37504
2017-11-11T12:09:46.367Z,37760
2017-11-11T12:10:59.769Z,34656
2017-11-11T12:12:13.877Z,33120
2017-11-11T12:13:27.923Z,31872
2017-11-11T12:14:41.365Z,26784
2017-11-11T12:15:55.442Z,20960
2017-11-11T12:17:09.486Z,19136
2017-11-11T12:18:22.919Z,21408
2017-11-11T12:19:35.806Z,25696
2017-11-11T12:20:49.786Z,30112
2017-11-11T12:22:03.283Z,32736
2017-11-11T12:23:16.757Z,31008
2017-11-11T12:24:30.223Z,31232
2017-11-11T12:25:44.238Z,33504
2017-11-11T12:26:58.281Z,36448
2017-11-11T12:28:12.332Z,40288
2017-11-11T12:29:26.377Z,43840
2017-11-11T12:30:39.835Z,41184
2017-11-11T12:31:53.926Z,32288
2017-11-11T12:33:07.999Z,27552
2017-11-11T12:34:22.065Z,26688
2017-11-11T12:35:36.300Z,28000
2017-11-11T12:36:49.791Z,29696
2017-11-11T12:38:03.819Z,29888
2017-11-11T12:39:17.318Z,28416
2017-11-11T12:40:30.771Z,27680
2017-11-11T12:41:45.115Z,20992
2017-11-11T12:42:59.355Z,21312
2017-11-11T12:44:13.380Z,25536
2017-11-11T12:45:27.389Z,30208
2017-11-11T12:46:41.433Z,33120
2017-11-11T12:47:54.881Z,29856
2017-11-11T12:49:07.765Z,25760
2017-11-11T12:50:21.746Z,23296
2017-11-11T12:51:34.025Z,23104
2017-11-11T12:52:47.481Z,24096
2017-11-11T12:54:00.977Z,27680
2017-11-11T12:55:14.994Z,30368
2017-11-11T12:56:28.402Z,30688
2017-11-11T12:57:42.453Z,31872
2017-11-11T12:58:55.876Z,30144
2017-11-11T13:00:09.327Z,27936
2017-11-11T13:01:23.714Z,25856
2017-11-11T13:02:38.015Z,27328
2017-11-11T13:03:51.489Z,27712
2017-11-11T13:05:04.945Z,28352
2017-11-11T13:06:18.954Z,30912
2017-11-11T13:07:33.001Z,32000
2017-11-11T13:08:47.030Z,29408
2017-11-11T13:10:00.669Z,28160
2017-11-11T13:11:14.732Z,25824
2017-11-11T13:12:28.844Z,25536
2017-11-11T13:13:42.257Z,27712
2017-11-11T13:14:56.267Z,31776
2017-11-11T13:16:09.726Z,33600
2017-11-11T13:17:23.216Z,33504
2017-11-11T13:18:37.244Z,32032
2017-11-11T13:19:51.312Z,31424
2017-11-11T13:21:04.728Z,30304
2017-11-11T13:22:18.193Z,30048
2017-11-11T13:23:31.632Z,30176
2017-11-11T13:24:45.729Z,29952
2017-11-11T13:25:59.790Z,30432
2017-11-11T13:27:20.462Z,29184
2017-11-11T13:28:39.238Z,26944
2017-11-11T13:29:53.243Z,25600
2017-11-11T13:31:06.671Z,23072
2017-11-11T13:32:20.716Z,20896
2017-11-11T13:33:34.795Z,19744
2017-11-11T13:34:48.248Z,19232
2017-11-11T13:36:02.324Z,19584
2017-11-11T13:37:16.357Z,21888
2017-11-11T13:40:14.866Z,27232
2017-11-11T13:41:28.381Z,26368
2017-11-11T13:42:41.849Z,25216
2017-11-11T13:43:55.306Z,24160
2017-11-11T13:45:08.783Z,23776
2017-11-11T13:46:22.231Z,24000
2017-11-11T13:47:35.677Z,24160
2017-11-11T13:48:49.115Z,24256
2017-11-11T13:50:03.132Z,23424
2017-11-11T13:51:16.569Z,22528
2017-11-11T13:52:30.057Z,22496
2017-11-11T13:53:43.490Z,23360
2017-11-11T13:54:57.562Z,24256
2017-11-11T13:56:11.032Z,24608
2017-11-11T13:57:24.496Z,24256
2017-11-11T13:58:38.550Z,24576
2017-11-11T13:59:52.014Z,26816
2017-11-11T14:01:05.784Z,32352
2017-11-11T14:02:19.849Z,39840
2017-11-11T14:03:33.304Z,44576
2017-11-11T14:04:47.548Z,45856
2017-11-11T14:06:01.574Z,47968
2017-11-11T14:07:15.612Z,49056
2017-11-11T14:08:29.649Z,54560
2017-11-11T14:09:43.093Z,57088
2017-11-11T14:10:56.572Z,55936
2017-11-11T14:12:10.698Z,54368
2017-11-11T14:13:24.756Z,48864
2017-11-11T14:14:39.023Z,45504
2017-11-11T14:15:53.012Z,42368
2017-11-11T14:17:07.089Z,41888
2017-11-11T14:18:21.137Z,41728
2017-11-11T14:19:34.572Z,38176
2017-11-11T14:20:48.031Z,34848
2017-11-11T14:22:00.908Z,33632
2017-11-11T14:23:14.990Z,33664
2017-11-11T14:24:29.013Z,32672
2017-11-11T14:25:42.491Z,31840
2017-11-11T14:26:56.493Z,32704
2017-11-11T14:28:10.516Z,32832
2017-11-11T14:29:24.524Z,31232
2017-11-11T14:30:38.591Z,27488
2017-11-11T14:31:52.612Z,22848
2017-11-11T14:33:06.645Z,19328
2017-11-11T14:34:20.688Z,17824
2017-11-11T14:35:33.557Z,17440
2017-11-11T14:36:47.625Z,16784
2017-11-11T14:38:01.681Z,15884
2017-11-11T14:39:14.530Z,14772
2017-11-11T14:40:27.952Z,14040
2017-11-11T14:41:42.021Z,12616
2017-11-11T14:42:55.488Z,11788
2017-11-11T14:44:09.538Z,11788
2017-11-11T14:45:23.660Z,11848
2017-11-11T14:46:37.714Z,11740
2017-11-11T14:47:51.774Z,11080
2017-11-11T14:49:05.790Z,10324
2017-11-11T14:50:19.256Z,10260
2017-11-11T14:51:33.270Z,11056
2017-11-11T14:52:47.310Z,11616
2017-11-11T14:54:01.352Z,11828
2017-11-11T14:55:15.359Z,11428
2017-11-11T14:56:29.422Z,11064
2017-11-11T14:57:43.640Z,10424
2017-11-11T14:58:57.693Z,9696
2017-11-11T15:00:10.695Z,9416
2017-11-11T15:01:24.033Z,9212
2017-11-11T15:02:36.819Z,8996
2017-11-11T15:03:49.628Z,8912
2017-11-11T15:05:02.475Z,8616
2017-11-11T15:06:15.825Z,8680
2017-11-11T15:07:29.096Z,9636
2017-11-11T15:08:42.418Z,11332
2017-11-11T15:09:55.771Z,13248
2017-11-11T15:11:08.626Z,15408
2017-11-11T15:12:21.398Z,15364
2017-11-11T15:13:34.199Z,14488
2017-11-11T15:14:47.560Z,13928
2017-11-11T15:16:00.867Z,13172
2017-11-11T15:17:13.679Z,13048
2017-11-11T15:18:27.073Z,13848
2017-11-11T15:19:40.451Z,15340
2017-11-11T15:20:53.264Z,17336
2017-11-11T15:22:06.032Z,17728
2017-11-11T15:23:18.824Z,15468
2017-11-11T15:24:32.113Z,14800
2017-11-11T15:25:43.833Z,14560
2017-11-11T15:26:57.171Z,13924
2017-11-11T15:28:10.526Z,13592
2017-11-11T15:29:22.249Z,13168
2017-11-11T15:30:35.565Z,12484
2017-11-11T15:31:48.338Z,12440
2017-11-11T15:33:01.662Z,14524
2017-11-11T15:34:14.499Z,17440
2017-11-11T15:35:26.735Z,18912
2017-11-11T15:36:39.525Z,20096
2017-11-11T15:37:52.344Z,21216
2017-11-11T15:39:05.686Z,21120
2017-11-11T15:40:19.035Z,20096
2017-11-11T15:41:31.535Z,20096
2017-11-11T15:42:44.348Z,23200
2017-11-11T15:43:56.059Z,27104
2017-11-11T15:45:08.312Z,27456
2017-11-11T15:46:21.098Z,25792
2017-11-11T15:47:33.881Z,24256
2017-11-11T15:48:47.263Z,24096
2017-11-11T15:50:00.069Z,26880
2017-11-11T15:51:11.821Z,32736
2017-11-11T15:52:24.089Z,29568
2017-11-11T15:53:37.400Z,29184
2017-11-11T15:54:50.229Z,28288
2017-11-11T15:56:03.594Z,27744
2017-11-11T15:57:16.622Z,27040
2017-11-11T15:58:29.957Z,24544
2017-11-11T15:59:43.302Z,22112
2017-11-11T16:00:55.571Z,25440
2017-11-11T16:02:08.394Z,26496
2017-11-11T16:03:21.742Z,27808
2017-11-11T16:04:34.563Z,30368
2017-11-11T16:05:47.924Z,30080
2017-11-11T16:07:00.761Z,28704
2017-11-11T16:08:12.478Z,28352
2017-11-11T16:09:24.746Z,31360
2017-11-11T16:10:37.547Z,35648
2017-11-11T16:11:50.365Z,34656
2017-11-11T16:13:03.910Z,40320
2017-11-11T16:14:17.223Z,39168
2017-11-11T16:15:30.555Z,30112
2017-11-11T16:16:43.855Z,26432
2017-11-11T16:17:56.661Z,28352
2017-11-11T16:19:10.074Z,29856
2017-11-11T16:20:23.454Z,26272
2017-11-11T16:21:36.808Z,23552
2017-11-11T16:22:50.173Z,22848
2017-11-11T16:24:03.538Z,21408
2017-11-11T16:25:16.319Z,19072
2017-11-11T16:26:28.032Z,17728
2017-11-11T16:27:41.327Z,16188
2017-11-11T16:28:54.630Z,13612
2017-11-11T16:30:07.963Z,11064
2017-11-11T16:31:21.336Z,10000
2017-11-11T16:32:34.147Z,9552
2017-11-11T16:33:47.537Z,8996
2017-11-11T16:35:00.866Z,9300
2017-11-11T16:36:14.193Z,9876
2017-11-11T16:37:27.520Z,9836
2017-11-11T16:38:40.322Z,9084
2017-11-11T16:39:53.835Z,8552
2017-11-11T16:41:06.624Z,8496
2017-11-11T16:42:19.374Z,8876
2017-11-11T16:43:32.927Z,9216
2017-11-11T16:44:45.172Z,9316
2017-11-11T16:45:58.893Z,9708
2017-11-11T16:47:12.208Z,10636
2017-11-11T16:48:25.078Z,11572
2017-11-11T16:49:37.828Z,12560
2017-11-11T16:50:51.207Z,13748
2017-11-11T16:52:04.530Z,14556
2017-11-11T16:53:16.784Z,14556
2017-11-11T16:54:30.129Z,13988
2017-11-11T16:55:42.951Z,14792
2017-11-11T16:56:56.327Z,16588
2017-11-11T16:58:09.123Z,18368
2017-11-11T16:59:21.930Z,19072